Latest Weather Observations for Mount Buller

IDV60801

Issued at 7:32 pm EDT Saturday 21 January 2017 (issued every 30 minutes, with the page automatically refreshed every 10 minutes)

About weather observations | Map of weather stations | Latest weather observations for VIC | Other Formats
Station Details ID: 083024 Name: MOUNT BULLER Lat: -37.15 Lon: 146.44 Height: 1707.0 m
Data from the previous 72 hours. | See also: Recent months at Mount Buller
Date/Time
EDT
Temp
°C
App
Temp
°C
Dew
Point
°C
Rel
Hum
%
Delta-T
°C
Wind Press
QNH
hPa
Press
MSL
hPa
Rain since
9am
mm
Dir  Spd
km/h
Gust
km/h
Spd
kts
Gust
kts
21/07:30pm 12.8 9.4 5.9 63 3.6 S 13 17 7 9 - - 0.0
21/07:00pm 14.2 11.7 6.6 60 4.0 S 9 13 5 7 - - 0.0
21/06:30pm 14.4 12.0 7.2 62 3.9 S 9 15 5 8 - - 0.0
21/06:00pm 14.4 11.4 7.5 63 3.7 S 13 19 7 10 - - 0.0
21/05:30pm 14.4 11.4 7.7 64 3.6 S 13 19 7 10 - - 0.0
21/05:00pm 14.8 12.2 7.8 63 3.8 S 11 19 6 10 - - 0.0
21/04:30pm 14.9 12.3 7.9 63 3.8 SSE 11 17 6 9 - - 0.0
21/04:00pm 14.3 11.4 4.6 52 4.9 SSE 9 13 5 7 - - 0.0
21/03:30pm 14.1 11.4 5.5 56 4.5 SSE 9 15 5 8 - - 0.0
21/03:00pm 13.8 10.5 4.7 54 4.6 SSE 11 17 6 9 - - 0.0
21/02:30pm 14.1 10.5 5.2 55 4.6 SSE 13 20 7 11 - - 0.0
21/02:00pm 13.8 10.8 4.1 52 4.9 SSE 9 17 5 9 - - 0.0
21/01:30pm 13.3 10.1 2.8 49 5.1 SSE 9 17 5 9 - - 0.0
21/01:00pm 12.6 9.6 6.0 64 3.4 SSE 11 15 6 8 - - 0.0
21/12:30pm 12.0 9.5 5.0 62 3.5 SSE 7 13 4 7 - - 0.0
21/12:00pm 12.0 8.4 3.0 54 4.4 SSE 11 17 6 9 - - 0.0
21/11:30am 12.2 7.9 3.2 54 4.4 SSE 15 20 8 11 - - 0.0
21/11:00am 11.3 6.4 2.1 53 4.4 SSE 17 22 9 12 - - 0.0
21/10:30am 11.6 6.9 0.7 47 5.0 SSE 15 19 8 10 - - 0.0
21/10:00am 11.4 5.5 -2.0 39 5.8 SSE 19 24 10 13 - - 0.0
21/09:30am 11.4 4.9 -2.4 38 5.9 SSE 22 30 12 16 - - 0.0
21/09:00am 11.2 4.6 -3.7 35 6.2 S 22 32 12 17 - - 18.6
21/08:30am 10.6 2.2 -5.8 31 6.5 S 30 39 16 21 - - 18.6
21/08:08am 10.2 1.5 -5.3 33 6.2 S 32 50 17 27 - - 18.6
21/08:00am 10.1 1.1 -6.2 31 6.3 S 33 50 18 27 - - 18.6
21/07:30am 9.3 0.5 -5.7 34 5.8 S 32 41 17 22 - - 18.6
21/07:00am 8.3 -0.9 -8.2 30 6.0 S 33 41 18 22 - - 18.6
21/06:30am 7.7 -1.7 -11.1 25 6.3 S 33 43 18 23 - - 18.6
21/06:00am 6.4 -1.9 -8.7 33 5.3 S 28 41 15 22 - - 18.6
21/05:30am 6.1 -2.7 -6.5 40 4.6 S 32 39 17 21 - - 18.6
21/05:00am 6.4 -2.4 -6.5 39 4.8 S 32 41 17 22 - - 18.6
21/04:30am 6.3 -3.0 -5.6 42 4.5 S 35 41 19 22 - - 18.6
21/04:00am 6.2 -2.9 -3.4 50 3.8 S 35 46 19 25 - - 18.6
21/03:30am 6.6 -3.5 -2.5 52 3.7 S 41 54 22 29 - - 18.6
21/03:00am 6.5 -4.0 -2.9 51 3.8 S 43 52 23 28 - - 18.6
21/02:30am 6.2 -4.5 -2.4 54 3.5 S 44 57 24 31 - - 18.6
21/02:00am 6.0 -4.0 -1.9 57 3.3 S 41 52 22 28 - - 18.6
21/01:30am 6.1 -4.5 -1.5 58 3.2 S 44 54 24 29 - - 18.6
21/01:00am 5.7 -5.1 -0.4 65 2.6 S 46 61 25 33 - - 18.6
21/12:36am 5.1 -6.3 0.7 73 1.9 S 50 69 27 37 - - 18.6
21/12:30am 5.3 -6.8 0.9 73 1.9 S 54 67 29 36 - - 18.6
21/12:00am 4.4 -6.4 4.3 99 0.0 S 50 63 27 34 - - 18.6
 
Date/Time
EDT
Temp
°C
App
Temp
°C
Dew
Point
°C
Rel
Hum
%
Delta-T
°C
Wind Press
QNH
hPa
Press
MSL
hPa
Rain since
9am
mm
Dir  Spd
km/h
Gust
km/h
Spd
kts
Gust
kts
20/11:30pm 3.6 -6.5 3.5 99 0.0 S 46 54 25 29 - - 18.6
20/11:00pm 3.6 -6.2 3.5 99 0.0 S 44 57 24 31 - - 18.6
20/10:30pm 3.9 -7.0 3.8 99 0.0 S 50 63 27 34 - - 18.6
20/10:00pm 4.3 -5.7 4.2 99 0.0 SSW 46 65 25 35 - - 18.6
20/09:30pm 4.5 -7.6 4.4 99 0.0 S 57 78 31 42 - - 18.6
20/09:22pm 4.4 -7.1 4.3 99 0.0 S 54 72 29 39 - - 18.6
20/09:00pm 4.7 -6.8 4.6 99 0.0 S 54 69 29 37 - - 18.6
20/08:30pm 5.0 -5.6 4.9 99 0.0 SSW 50 69 27 37 - - 18.6
20/08:10pm 5.3 -5.3 5.2 99 0.0 SSW 50 69 27 37 - - 18.6
20/08:00pm 5.4 -5.9 5.3 99 0.0 S 54 67 29 36 - - 18.6
20/07:42pm 5.9 -3.8 5.8 99 0.0 SSW 46 65 25 35 - - 18.6
20/07:30pm 5.9 -4.2 5.8 99 0.0 SSW 48 65 26 35 - - 18.6
20/07:16pm 6.0 -3.7 5.9 99 0.0 SSW 46 67 25 36 - - 18.6
20/07:00pm 6.3 -2.7 6.2 99 0.0 S 43 54 23 29 - - 18.6
20/06:30pm 6.4 -0.5 6.3 99 0.1 SSW 32 44 17 24 - - 18.6
20/06:00pm 6.5 -2.1 6.4 99 0.1 SSW 41 54 22 29 - - 18.6
20/05:30pm 6.3 -2.4 6.2 99 0.0 SSW 41 61 22 33 - - 18.6
20/05:00pm 7.2 -1.6 7.1 99 0.1 SSW 43 61 23 33 - - 18.6
20/04:37pm 7.3 0.0 7.2 99 0.1 SSW 35 54 19 29 - - 18.6
20/04:30pm 7.1 -0.6 7.0 99 0.1 SSW 37 54 20 29 - - 18.6
20/04:01pm 7.2 -1.3 7.1 99 0.1 SSW 41 59 22 32 - - 18.6
20/04:00pm 6.6 -2.4 6.5 99 0.1 SSW 43 59 23 32 - - 18.6
20/03:30pm 7.9 0.7 7.8 99 0.1 SSW 35 59 19 32 - - 18.6
20/03:00pm 8.5 2.4 8.4 99 0.1 SSW 30 50 16 27 - - 18.6
20/02:30pm 8.4 1.9 8.3 99 0.1 SW 32 50 17 27 - - 18.6
20/02:09pm 9.2 4.5 9.1 99 0.1 SW 24 46 13 25 - - 18.6
20/02:00pm 9.5 4.5 9.4 99 0.1 SW 26 54 14 29 - - 18.6
20/01:47pm 9.9 4.2 9.8 99 0.1 WSW 30 44 16 24 - - 18.6
20/01:30pm 10.2 2.5 10.1 99 0.1 W 41 59 22 32 - - 18.6
20/01:04pm 10.7 2.7 10.5 99 0.1 W 43 61 23 33 - - 18.6
20/01:00pm 10.7 2.5 10.5 99 0.1 W 44 61 24 33 - - 18.6
20/12:32pm 10.9 5.1 10.7 99 0.1 WSW 32 50 17 27 - - 18.6
20/12:30pm 11.1 5.7 10.9 99 0.1 W 30 50 16 27 - - 18.6
20/12:03pm 11.3 5.6 11.1 99 0.1 WNW 32 50 17 27 - - 18.2
20/12:00pm 11.4 6.1 11.2 99 0.1 WNW 30 46 16 25 - - 18.2
20/11:30am 11.4 6.1 11.2 99 0.1 WNW 30 56 16 30 - - 18.0
20/11:00am 11.7 6.1 11.5 99 0.1 WNW 32 57 17 31 - - 17.4
20/10:53am 11.8 7.7 11.6 99 0.1 WNW 24 56 13 30 - - 17.2
20/10:30am 12.0 9.0 11.8 99 0.1 WNW 19 56 10 30 - - 15.0
20/10:00am 12.2 6.7 12.0 99 0.1 NNW 32 61 17 33 - - 12.0
20/09:43am 12.7 5.3 12.5 99 0.1 NNW 43 78 23 42 - - 9.8
20/09:30am 13.0 3.0 12.8 99 0.1 NNW 57 96 31 52 - - 7.0
20/09:00am 12.6 2.1 12.4 99 0.1 NNW 59 109 32 59 - - 29.4
20/08:56am 12.6 2.7 12.4 99 0.1 NNW 56 109 30 59 - - 29.4
20/08:30am 11.7 1.9 11.5 99 0.1 NNW 54 76 29 41 - - 29.4
20/08:02am 11.0 2.2 10.8 99 0.1 N 48 67 26 36 - - 28.4
20/08:00am 11.0 1.8 10.8 99 0.1 N 50 65 27 35 - - 28.4
20/07:30am 10.9 1.3 10.7 99 0.1 N 52 74 28 40 - - 25.8
20/07:00am 10.4 1.8 10.2 99 0.1 N 46 70 25 38 - - 18.8
20/06:30am 10.8 0.8 10.6 99 0.1 N 54 80 29 43 - - 14.8
20/06:08am 10.5 1.5 10.3 99 0.1 N 48 69 26 37 - - 13.6
20/06:00am 10.1 1.0 10.0 99 0.1 N 48 63 26 34 - - 13.2
20/05:30am 9.8 1.6 9.7 99 0.1 N 43 59 23 32 - - 11.4
20/05:02am 8.8 2.8 8.7 99 0.1 N 30 52 16 28 - - 7.8
20/05:00am 8.6 2.6 8.5 99 0.1 N 30 44 16 24 - - 7.6
20/04:30am 8.5 1.7 7.9 96 0.3 NNW 33 52 18 28 - - 4.6
20/04:00am 11.1 1.7 7.2 77 2.1 NNW 46 69 25 37 - - 1.0
20/03:41am 13.6 4.7 6.7 63 3.7 N 43 61 23 33 - - 0.0
20/03:30am 14.9 5.4 4.0 48 5.5 N 43 57 23 31 - - 0.0
20/03:12am 15.0 5.0 4.1 48 5.5 N 46 65 25 35 - - 0.0
20/03:00am 15.1 4.5 3.3 45 5.9 N 48 65 26 35 - - 0.0
20/02:30am 15.1 4.6 1.6 40 6.5 N 46 65 25 35 - - 0.0
20/02:06am 14.8 5.0 3.3 46 5.7 N 44 63 24 34 - - 0.0
20/02:00am 15.0 5.4 3.2 45 5.9 N 43 57 23 31 - - 0.0
20/01:50am 14.7 6.8 4.1 49 5.4 N 35 56 19 30 - - 0.0
20/01:30am 14.4 7.0 5.2 54 4.8 N 33 43 18 23 - - 0.0
20/01:00am 14.4 6.3 5.2 54 4.8 N 37 50 20 27 - - 0.0
20/12:32am 14.5 7.4 5.6 55 4.6 N 32 50 17 27 - - 0.0
20/12:30am 14.3 7.2 5.7 56 4.5 N 32 43 17 23 - - 0.0
20/12:00am 14.3 7.3 6.2 58 4.3 NNE 32 41 17 22 - - 0.0
 
Date/Time
EDT
Temp
°C
App
Temp
°C
Dew
Point
°C
Rel
Hum
%
Delta-T
°C
Wind Press
QNH
hPa
Press
MSL
hPa
Rain since
9am
mm
Dir  Spd
km/h
Gust
km/h
Spd
kts
Gust
kts
19/11:30pm 15.0 8.1 4.7 50 5.3 NNE 30 39 16 21 - - 0.0
19/11:00pm 14.9 8.3 4.0 48 5.5 NNE 28 37 15 20 - - 0.0
19/10:30pm 14.4 9.6 5.7 56 4.5 N 20 28 11 15 - - 0.0
19/10:00pm 14.5 9.5 4.5 51 5.1 N 20 24 11 13 - - 0.0
19/09:30pm 14.2 9.5 5.0 54 4.7 N 19 22 10 12 - - 0.0
19/09:00pm 14.0 10.1 5.4 56 4.5 N 15 19 8 10 - - 0.0
19/08:30pm 13.7 10.1 5.1 56 4.4 N 13 17 7 9 - - 0.0
19/08:00pm 13.6 11.1 8.2 70 2.9 N 11 13 6 7 - - 0.0
19/07:30pm 14.9 12.3 9.3 69 3.1 N 13 19 7 10 - - 0.0
19/07:00pm 15.0 12.3 8.9 67 3.4 NNE 13 17 7 9 - - 0.0
19/06:30pm 16.4 14.6 9.6 64 3.9 NNE 9 15 5 8 - - 0.0
19/06:00pm 17.3 15.0 10.4 64 4.0 NNW 13 20 7 11 - - 0.0
19/05:30pm 17.2 13.5 9.6 61 4.3 N 19 30 10 16 - - 0.0
19/05:00pm 17.1 14.6 9.8 62 4.2 NW 13 28 7 15 - - 0.0
19/04:30pm 17.0 14.0 9.4 61 4.3 NNW 15 30 8 16 - - 0.0
19/04:00pm 17.4 15.9 11.9 70 3.3 NNW 11 20 6 11 - - 0.0
19/03:30pm 16.9 14.0 8.1 56 4.9 NNW 13 22 7 12 - - 0.0
19/03:00pm 16.7 13.2 5.6 48 5.9 NNW 13 20 7 11 - - 0.0
19/02:30pm 16.7 13.6 8.7 59 4.5 NNW 15 20 8 11 - - 0.0
19/02:00pm 16.8 15.1 12.3 75 2.7 N 13 22 7 12 - - 0.0
19/01:30pm 15.7 13.5 10.9 73 2.8 NNW 13 22 7 12 - - 0.0
19/01:00pm 15.4 12.9 9.7 69 3.2 NNW 13 20 7 11 - - 0.0
19/12:30pm 14.9 13.2 11.1 78 2.2 N 11 19 6 10 - - 0.0
19/12:00pm 14.8 13.1 8.3 65 3.6 N 7 17 4 9 - - 0.0
19/11:30am 14.6 12.7 7.6 63 3.8 N 7 19 4 10 - - 0.0
19/11:00am 14.5 12.7 8.0 65 3.6 N 7 13 4 7 - - 0.0
19/10:30am 13.3 10.9 8.6 73 2.6 NNE 11 15 6 8 - - 0.0
19/10:00am 13.0 11.0 8.5 74 2.5 N 9 15 5 8 - - 0.0
19/09:30am 12.9 10.7 9.2 78 2.1 N 11 15 6 8 - - 0.0
19/09:00am 12.3 9.9 8.6 78 2.0 N 11 13 6 7 - - 0.0
19/08:30am 12.2 9.0 8.3 77 2.1 N 15 17 8 9 - - 0.0
19/08:00am 11.5 7.7 7.4 76 2.2 NNW 17 20 9 11 - - 0.0
19/07:30am 10.8 6.9 6.9 77 2.0 NNW 17 20 9 11 - - 0.0
19/07:00am 9.9 5.6 6.8 81 1.6 NNW 19 24 10 13 - - 0.0
19/06:30am 10.1 5.6 7.0 81 1.6 NNW 20 26 11 14 - - 0.0
19/06:00am 10.2 5.3 6.9 80 1.7 NNW 22 28 12 15 - - 0.0
19/05:30am 10.1 5.7 7.3 83 1.5 NNW 20 28 11 15 - - 0.0
19/05:00am 9.6 5.2 6.5 81 1.6 NNW 19 22 10 12 - - 0.0
19/04:30am 9.6 5.2 6.7 82 1.5 NNW 19 22 10 12 - - 0.0
19/04:00am 9.9 5.9 6.6 80 1.7 NNW 17 19 9 10 - - 0.0
19/03:30am 10.3 5.1 -6.5 30 6.5 NNW 13 15 7 8 - - 0.0
19/03:00am 10.8 6.9 -6.1 30 6.6 NNE 6 9 3 5 - - 0.0
19/02:30am 11.7 7.4 -18.9 10 9.1 NNW 4 6 2 3 - - 0.0
19/02:00am 9.9 5.3 -13.3 18 7.6 NE 7 11 4 6 - - 0.0
19/01:30am 12.8 8.7 -23.8 6 10.0 NE 2 6 1 3 - - 0.0
19/01:00am 12.3 7.5 -21.0 8 9.6 N 6 7 3 4 - - 0.0
19/12:30am 11.4 7.1 -18.0 11 8.9 E 4 6 2 3 - - 0.0
19/12:00am 11.1 6.6 -14.5 15 8.3 E 6 13 3 7 - - 0.0
 
Date/Time
EDT
Temp
°C
App
Temp
°C
Dew
Point
°C
Rel
Hum
%
Delta-T
°C
Wind Press
QNH
hPa
Press
MSL
hPa
Rain since
9am
mm
Dir  Spd
km/h
Gust
km/h
Spd
kts
Gust
kts
18/11:30pm 9.3 2.7 -9.2 26 6.6 S 19 22 10 12 - - 0.0
18/11:00pm 8.9 2.9 -6.5 33 5.9 S 17 20 9 11 - - 0.0
18/10:30pm 8.4 2.4 -1.7 49 4.3 S 20 24 11 13 - - 0.0
18/10:00pm 8.3 4.0 1.0 60 3.3 S 13 15 7 8 - - 0.0
18/09:30pm 8.6 4.7 3.6 71 2.4 SSE 13 20 7 11 - - 0.0
18/09:00pm 8.5 4.1 4.7 77 1.9 SSE 17 20 9 11 - - 0.0
18/08:30pm 8.7 4.3 4.5 75 2.1 S 17 19 9 10 - - 0.0
18/08:00pm 10.2 5.2 4.6 68 2.8 S 20 24 11 13 - - 0.0

Other Formats:

Comma delimited format used in spreadsheet applications
http://www.bom.gov.au/fwo/IDV60801/IDV60801.94894.axf

JavaScript Object Notation format (JSON) in row-major order
http://www.bom.gov.au/fwo/IDV60801/IDV60801.94894.json